createdAt,value
2019-04-01T00:00:04.441Z,2
2019-04-01T00:01:02.263Z,1
2019-04-01T00:02:02.501Z,0
2019-04-01T00:03:01.620Z,0
2019-04-01T00:04:01.833Z,1
2019-04-01T00:05:02.017Z,0
2019-04-01T00:06:02.263Z,1
2019-04-01T00:07:02.530Z,3
2019-04-01T00:08:01.686Z,2
2019-04-01T00:09:01.910Z,2
2019-04-01T00:10:02.169Z,0
2019-04-01T00:11:02.363Z,1
2019-04-01T00:12:02.623Z,0
2019-04-01T00:13:01.863Z,0
2019-04-01T00:14:02.066Z,1
2019-04-01T00:15:02.331Z,0
2019-04-01T00:16:02.552Z,1
2019-04-01T00:17:01.815Z,2
2019-04-01T00:18:02.038Z,3
2019-04-01T00:19:03.897Z,0
2019-04-01T00:20:02.661Z,0
2019-04-01T00:21:01.841Z,1
2019-04-01T00:22:02.139Z,0
2019-04-01T00:23:02.979Z,1
2019-04-01T00:24:02.610Z,1
2019-04-01T00:25:01.884Z,1
2019-04-01T00:26:02.467Z,0
2019-04-01T00:27:01.812Z,1
2019-04-01T00:28:01.906Z,0
2019-04-01T00:29:02.130Z,1
2019-04-01T00:30:02.347Z,1
2019-04-01T00:31:02.545Z,0
2019-04-01T00:32:01.829Z,1
2019-04-01T00:33:02.194Z,1
2019-04-01T00:34:02.478Z,1
2019-04-01T00:35:02.638Z,0
2019-04-01T00:36:01.902Z,0
2019-04-01T00:37:02.158Z,1
2019-04-01T00:38:02.382Z,2
2019-04-01T00:39:01.612Z,2
2019-04-01T00:40:01.929Z,0
2019-04-01T00:41:02.099Z,2
2019-04-01T00:42:02.338Z,1
2019-04-01T00:43:02.555Z,3
2019-04-01T00:44:01.696Z,0
2019-04-01T00:45:01.975Z,1
2019-04-01T00:46:02.153Z,0
2019-04-01T00:47:02.177Z,0
2019-04-01T00:48:02.374Z,0
2019-04-01T00:49:01.675Z,1
2019-04-01T00:50:01.990Z,0
2019-04-01T00:51:02.184Z,1
2019-04-01T00:52:02.265Z,0
2019-04-01T00:53:02.396Z,1
2019-04-01T00:54:02.605Z,2
2019-04-01T00:55:01.871Z,1
2019-04-01T00:56:02.107Z,0
2019-04-01T00:57:02.348Z,0
2019-04-01T00:58:02.624Z,1
2019-04-01T00:59:01.857Z,0
2019-04-01T01:00:04.696Z,1
2019-04-01T01:01:02.497Z,1
2019-04-01T01:02:02.441Z,0
2019-04-01T01:03:02.585Z,1
2019-04-01T01:04:01.846Z,1
2019-04-01T01:05:02.126Z,1
2019-04-01T01:06:02.343Z,1
2019-04-01T01:07:02.536Z,1
2019-04-01T01:08:01.781Z,1
2019-04-01T01:09:01.993Z,0
2019-04-01T01:10:02.222Z,1
2019-04-01T01:11:02.495Z,0
2019-04-01T01:12:01.671Z,3
2019-04-01T01:13:01.859Z,0
2019-04-01T01:14:02.128Z,0
2019-04-01T01:15:02.353Z,1
2019-04-01T01:16:02.590Z,2
2019-04-01T01:17:01.724Z,1
2019-04-01T01:18:02.021Z,1
2019-04-01T01:19:02.236Z,2
2019-04-01T01:20:02.507Z,1
2019-04-01T01:21:01.802Z,0
2019-04-01T01:22:01.912Z,0
2019-04-01T01:23:02.146Z,0
2019-04-01T01:24:02.375Z,1
2019-04-01T01:25:01.678Z,0
2019-04-01T01:26:01.977Z,0
2019-04-01T01:27:02.617Z,0
2019-04-01T01:28:01.781Z,0
2019-04-01T01:29:02.147Z,1
2019-04-01T01:30:02.354Z,0
2019-04-01T01:31:02.641Z,1
2019-04-01T01:32:01.775Z,1
2019-04-01T01:33:01.952Z,0
2019-04-01T01:34:02.227Z,0
2019-04-01T01:35:02.474Z,0
2019-04-01T01:36:01.683Z,0
2019-04-01T01:37:01.976Z,1
2019-04-01T01:38:02.101Z,1
2019-04-01T01:39:02.286Z,1
2019-04-01T01:40:02.553Z,0
2019-04-01T01:41:01.745Z,1
2019-04-01T01:42:02.020Z,1
2019-04-01T01:43:02.191Z,0
2019-04-01T01:44:02.349Z,2
2019-04-01T01:45:02.651Z,0
2019-04-01T01:46:01.772Z,0
2019-04-01T01:47:01.982Z,1
2019-04-01T01:48:02.250Z,0
2019-04-01T01:49:02.439Z,2
2019-04-01T01:50:01.665Z,0
2019-04-01T01:51:01.833Z,1
2019-04-01T01:52:02.103Z,0
2019-04-01T01:53:02.388Z,0
2019-04-01T01:54:02.601Z,1
2019-04-01T01:55:01.745Z,0
2019-04-01T01:56:01.968Z,1
2019-04-01T01:57:02.151Z,1
2019-04-01T01:58:02.433Z,0
2019-04-01T01:59:02.574Z,0
2019-04-01T02:00:05.003Z,0
2019-04-01T02:01:01.760Z,0
2019-04-01T02:02:02.174Z,0
2019-04-01T02:03:02.503Z,1
2019-04-01T02:04:01.631Z,1
2019-04-01T02:05:01.898Z,0
2019-04-01T02:06:02.143Z,2
2019-04-01T02:07:02.350Z,2
2019-04-01T02:08:02.615Z,1
2019-04-01T02:09:01.859Z,0
2019-04-01T02:10:02.201Z,0
2019-04-01T02:11:02.279Z,1
2019-04-01T02:12:02.457Z,1
2019-04-01T02:13:01.649Z,0
2019-04-01T02:14:01.913Z,0
2019-04-01T02:15:02.155Z,0
2019-04-01T02:16:02.474Z,0
2019-04-01T02:17:01.629Z,0
2019-04-01T02:18:01.867Z,2
2019-04-01T02:19:02.146Z,0
2019-04-01T02:20:02.415Z,1
2019-04-01T02:21:02.569Z,1
2019-04-01T02:22:01.887Z,1
2019-04-01T02:23:01.991Z,1
2019-04-01T02:24:02.314Z,0
2019-04-01T02:25:02.556Z,0
2019-04-01T02:26:01.716Z,0
2019-04-01T02:27:02.015Z,1
2019-04-01T02:28:02.166Z,0
2019-04-01T02:29:02.455Z,1
2019-04-01T02:30:02.635Z,0
2019-04-01T02:31:01.835Z,0
2019-04-01T02:32:02.090Z,0
2019-04-01T02:33:02.339Z,1
2019-04-01T02:34:02.546Z,1
2019-04-01T02:35:02.163Z,0
2019-04-01T02:36:02.131Z,1
2019-04-01T02:37:02.386Z,2
2019-04-01T02:38:02.644Z,0
2019-04-01T02:39:01.748Z,1
2019-04-01T02:40:01.967Z,1
2019-04-01T02:41:02.130Z,0
2019-04-01T02:42:02.395Z,2
2019-04-01T02:43:02.649Z,0
2019-04-01T02:44:01.798Z,0
2019-04-01T02:45:02.112Z,0
2019-04-01T02:46:02.370Z,0
2019-04-01T02:47:02.630Z,1
2019-04-01T02:48:01.869Z,0
2019-04-01T02:49:02.022Z,1
2019-04-01T02:50:02.332Z,0
2019-04-01T02:51:02.530Z,1
2019-04-01T02:52:01.777Z,1
2019-04-01T02:53:02.066Z,0
2019-04-01T02:54:02.245Z,1
2019-04-01T02:55:07.448Z,1
2019-04-01T02:56:02.643Z,0
2019-04-01T02:57:01.947Z,0
2019-04-01T02:58:02.077Z,2
2019-04-01T02:59:02.355Z,1
2019-04-01T03:00:02.607Z,0
2019-04-01T03:01:01.923Z,1
2019-04-01T03:02:02.036Z,1
2019-04-01T03:03:02.325Z,1
2019-04-01T03:04:02.608Z,0
2019-04-01T03:05:01.885Z,1
2019-04-01T03:06:02.117Z,1
2019-04-01T03:07:02.281Z,0
2019-04-01T03:08:02.535Z,0
2019-04-01T03:09:01.693Z,1
2019-04-01T03:10:01.959Z,0
2019-04-01T03:11:02.156Z,0
2019-04-01T03:12:02.359Z,1
2019-04-01T03:13:02.667Z,0
2019-04-01T03:14:01.871Z,1
2019-04-01T03:15:02.156Z,1
2019-04-01T03:16:02.433Z,0
2019-04-01T03:17:02.524Z,0
2019-04-01T03:18:01.873Z,0
2019-04-01T03:19:02.177Z,0
2019-04-01T03:20:02.404Z,1
2019-04-01T03:21:02.552Z,1
2019-04-01T03:22:01.781Z,0
2019-04-01T03:23:02.016Z,0
2019-04-01T03:24:02.429Z,1
2019-04-01T03:25:02.507Z,1
2019-04-01T03:26:01.699Z,1
2019-04-01T03:27:01.873Z,0
2019-04-01T03:28:02.274Z,0
2019-04-01T03:29:02.337Z,1
2019-04-01T03:30:02.690Z,1
2019-04-01T03:31:01.862Z,1
2019-04-01T03:32:02.059Z,0
2019-04-01T03:33:02.321Z,1
2019-04-01T03:34:02.657Z,0
2019-04-01T03:35:02.584Z,1
2019-04-01T03:36:01.991Z,0
2019-04-01T03:37:02.330Z,2
2019-04-01T03:38:02.413Z,0
2019-04-01T03:39:02.621Z,0
2019-04-01T03:40:01.874Z,0
2019-04-01T03:41:02.100Z,0
2019-04-01T03:42:02.350Z,1
2019-04-01T03:43:02.564Z,0
2019-04-01T03:44:01.798Z,0
2019-04-01T03:45:02.114Z,0
2019-04-01T03:46:02.241Z,0
2019-04-01T03:47:02.542Z,2
2019-04-01T03:48:01.679Z,1
2019-04-01T03:49:01.961Z,0
2019-04-01T03:50:02.132Z,0
2019-04-01T03:51:02.461Z,0
2019-04-01T03:52:02.502Z,0
2019-04-01T03:53:01.717Z,0
2019-04-01T03:54:01.946Z,0
2019-04-01T03:55:02.207Z,1
2019-04-01T03:56:02.473Z,2
2019-04-01T03:57:01.759Z,2
2019-04-01T03:58:01.894Z,1
2019-04-01T03:59:02.119Z,1
2019-04-01T04:00:04.677Z,0
2019-04-01T04:01:02.570Z,0
2019-04-01T04:02:01.848Z,1
2019-04-01T04:03:02.027Z,1
2019-04-01T04:04:02.233Z,0
2019-04-01T04:05:02.449Z,0
2019-04-01T04:06:02.612Z,0
2019-04-01T04:07:01.899Z,1
2019-04-01T04:08:02.075Z,0
2019-04-01T04:09:02.923Z,1
2019-04-01T04:10:02.657Z,0
2019-04-01T04:11:01.898Z,1
2019-04-01T04:12:02.190Z,0
2019-04-01T04:13:02.337Z,2
2019-04-01T04:14:02.546Z,1
2019-04-01T04:15:01.839Z,0
2019-04-01T04:16:01.951Z,0
2019-04-01T04:17:02.180Z,0
2019-04-01T04:18:02.408Z,0
2019-04-01T04:19:01.689Z,1
2019-04-01T04:20:02.059Z,1
2019-04-01T04:21:02.233Z,1
2019-04-01T04:22:02.440Z,0
2019-04-01T04:23:01.651Z,1
2019-04-01T04:24:01.808Z,0
2019-04-01T04:25:02.255Z,1
2019-04-01T04:26:02.321Z,2
2019-04-01T04:27:02.582Z,0
2019-04-01T04:28:01.860Z,0
2019-04-01T04:29:02.055Z,0
2019-04-01T04:30:02.209Z,0
2019-04-01T04:31:02.386Z,0
2019-04-01T04:32:02.555Z,0
2019-04-01T04:33:01.765Z,0
2019-04-01T04:34:02.018Z,1
2019-04-01T04:35:06.819Z,0
2019-04-01T04:36:02.496Z,0
2019-04-01T04:37:01.781Z,1
2019-04-01T04:38:01.965Z,1
2019-04-01T04:39:02.171Z,0
2019-04-01T04:40:02.415Z,0
2019-04-01T04:41:01.683Z,1
2019-04-01T04:42:01.928Z,1
2019-04-01T04:43:02.077Z,0
2019-04-01T04:44:02.326Z,1
2019-04-01T04:45:02.574Z,0
2019-04-01T04:46:01.759Z,0
2019-04-01T04:47:02.118Z,1
2019-04-01T04:48:02.205Z,0
2019-04-01T04:49:02.515Z,1
2019-04-01T04:50:02.042Z,1
2019-04-01T04:51:02.022Z,0
2019-04-01T04:52:05.170Z,0
2019-04-01T04:53:02.422Z,1
2019-04-01T04:54:01.778Z,2
2019-04-01T04:55:02.072Z,0
2019-04-01T04:56:02.225Z,1
2019-04-01T04:57:02.439Z,0
2019-04-01T04:58:01.624Z,0
2019-04-01T04:59:01.861Z,1
2019-04-01T05:00:03.511Z,1
2019-04-01T05:01:02.336Z,1
2019-04-01T05:02:02.570Z,0
2019-04-01T05:03:01.756Z,1
2019-04-01T05:04:02.018Z,1
2019-04-01T05:05:02.365Z,0
2019-04-01T05:06:02.429Z,1
2019-04-01T05:07:01.681Z,1
2019-04-01T05:08:01.878Z,0
2019-04-01T05:09:02.118Z,0
2019-04-01T05:10:01.644Z,0
2019-04-01T05:11:01.962Z,3
2019-04-01T05:12:02.085Z,0
2019-04-01T05:13:02.244Z,0
2019-04-01T05:14:02.413Z,0
2019-04-01T05:15:01.761Z,1
2019-04-01T05:16:01.890Z,1
2019-04-01T05:17:02.137Z,1
2019-04-01T05:18:02.323Z,1
2019-04-01T05:19:02.567Z,0
2019-04-01T05:20:01.782Z,1
2019-04-01T05:21:01.914Z,0
2019-04-01T05:22:02.104Z,0
2019-04-01T05:23:02.279Z,1
2019-04-01T05:24:02.486Z,1
2019-04-01T05:25:01.757Z,1
2019-04-01T05:26:01.934Z,1
2019-04-01T05:27:02.098Z,0
2019-04-01T05:28:02.310Z,0
2019-04-01T05:29:02.560Z,1
2019-04-01T05:30:01.850Z,0
2019-04-01T05:31:02.055Z,0
2019-04-01T05:32:02.355Z,1
2019-04-01T05:33:02.512Z,1
2019-04-01T05:34:01.746Z,1
2019-04-01T05:35:02.074Z,0
2019-04-01T05:36:02.223Z,0
2019-04-01T05:37:02.504Z,1
2019-04-01T05:38:01.696Z,0
2019-04-01T05:39:01.831Z,1
2019-04-01T05:40:02.249Z,0
2019-04-01T05:41:02.496Z,1
2019-04-01T05:42:01.704Z,0
2019-04-01T05:43:01.838Z,0
2019-04-01T05:44:02.919Z,0
2019-04-01T05:45:02.357Z,1
2019-04-01T05:46:02.478Z,3
2019-04-01T05:47:01.694Z,1
2019-04-01T05:48:02.022Z,1
2019-04-01T05:49:02.318Z,1
2019-04-01T05:50:02.562Z,0
2019-04-01T05:51:01.662Z,0
2019-04-01T05:52:01.848Z,0
2019-04-01T05:53:02.176Z,1
2019-04-01T05:54:02.508Z,1
2019-04-01T05:55:02.627Z,0
2019-04-01T05:56:01.911Z,1
2019-04-01T05:57:02.094Z,1
2019-04-01T05:58:02.361Z,1
2019-04-01T05:59:02.553Z,0
2019-04-01T06:00:04.259Z,0
2019-04-01T06:01:02.163Z,0
2019-04-01T06:02:02.377Z,1
2019-04-01T06:03:02.588Z,1
2019-04-01T06:04:01.703Z,0
2019-04-01T06:05:01.962Z,0
2019-04-01T06:06:02.320Z,0
2019-04-01T06:07:02.493Z,0
2019-04-01T06:08:01.729Z,0
2019-04-01T06:09:01.916Z,0
2019-04-01T06:10:02.208Z,1
2019-04-01T06:11:02.328Z,1
2019-04-01T06:12:02.550Z,1
2019-04-01T06:13:01.844Z,1
2019-04-01T06:14:02.110Z,1
2019-04-01T06:15:02.447Z,1
2019-04-01T06:16:02.582Z,0
2019-04-01T06:17:01.771Z,0
2019-04-01T06:18:02.060Z,0
2019-04-01T06:19:05.775Z,0
2019-04-01T06:20:02.444Z,1
2019-04-01T06:21:01.688Z,2
2019-04-01T06:22:01.865Z,1
2019-04-01T06:23:02.078Z,0
2019-04-01T06:24:02.339Z,1
2019-04-01T06:25:02.602Z,0
2019-04-01T06:26:01.841Z,0
2019-04-01T06:27:02.504Z,1
2019-04-01T06:28:02.268Z,1
2019-04-01T06:29:02.472Z,2
2019-04-01T06:30:01.778Z,1
2019-04-01T06:31:01.991Z,2
2019-04-01T06:32:02.203Z,2
2019-04-01T06:33:02.445Z,0
2019-04-01T06:34:01.685Z,1
2019-04-01T06:35:01.964Z,1
2019-04-01T06:36:02.131Z,1
2019-04-01T06:37:02.350Z,1
2019-04-01T06:38:02.469Z,0
2019-04-01T06:39:01.729Z,1
2019-04-01T06:40:02.054Z,1
2019-04-01T06:41:02.108Z,1
2019-04-01T06:42:02.366Z,1
2019-04-01T06:43:01.631Z,2
2019-04-01T06:44:01.933Z,2
2019-04-01T06:45:02.212Z,1
2019-04-01T06:46:02.393Z,0
2019-04-01T06:47:02.539Z,1
2019-04-01T06:48:01.704Z,1
2019-04-01T06:49:02.127Z,0
2019-04-01T06:50:02.280Z,1
2019-04-01T06:51:02.402Z,2
2019-04-01T06:52:01.659Z,0
2019-04-01T06:53:01.885Z,1
2019-04-01T06:54:02.104Z,0
2019-04-01T06:55:02.510Z,0
2019-04-01T06:56:02.626Z,0
2019-04-01T06:57:01.827Z,0
2019-04-01T06:58:02.114Z,0
2019-04-01T06:59:02.275Z,1
2019-04-01T07:00:04.437Z,0
2019-04-01T07:01:02.233Z,1
2019-04-01T07:02:02.473Z,2
2019-04-01T07:03:01.699Z,1
2019-04-01T07:04:01.853Z,1
2019-04-01T07:05:02.084Z,0
2019-04-01T07:06:02.322Z,0
2019-04-01T07:07:02.541Z,0
2019-04-01T07:08:01.792Z,0
2019-04-01T07:09:01.917Z,0
2019-04-01T07:10:02.343Z,0
2019-04-01T07:11:02.473Z,1
2019-04-01T07:12:01.641Z,1
2019-04-01T07:13:01.967Z,1
2019-04-01T07:14:02.118Z,0
2019-04-01T07:15:02.460Z,0
2019-04-01T07:16:16.388Z,1
2019-04-01T07:17:01.808Z,1
2019-04-01T07:18:02.133Z,0
2019-04-01T07:19:02.266Z,1
2019-04-01T07:20:02.610Z,0
2019-04-01T07:21:01.707Z,1
2019-04-01T07:22:02.659Z,1
2019-04-01T07:23:01.733Z,1
2019-04-01T07:24:01.987Z,1
2019-04-01T07:25:02.379Z,1
2019-04-01T07:26:02.488Z,1
2019-04-01T07:27:01.756Z,1
2019-04-01T07:28:01.951Z,0
2019-04-01T07:29:02.187Z,1
2019-04-01T07:30:02.482Z,0
2019-04-01T07:31:01.638Z,1
2019-04-01T07:32:01.871Z,2
2019-04-01T07:33:02.116Z,1
2019-04-01T07:34:02.339Z,0
2019-04-01T07:35:02.600Z,1
2019-04-01T07:36:01.844Z,0
2019-04-01T07:37:02.029Z,1
2019-04-01T07:38:02.175Z,1
2019-04-01T07:39:02.440Z,1
2019-04-01T07:40:01.691Z,3
2019-04-01T07:41:01.840Z,2
2019-04-01T07:42:02.122Z,0
2019-04-01T07:43:02.278Z,1
2019-04-01T07:44:02.493Z,1
2019-04-01T07:45:01.717Z,0
2019-04-01T07:46:02.268Z,0
2019-04-01T07:47:02.566Z,0
2019-04-01T07:48:01.690Z,1
2019-04-01T07:49:01.998Z,0
2019-04-01T07:50:02.348Z,0
2019-04-01T07:51:02.610Z,1
2019-04-01T07:52:01.774Z,0
2019-04-01T07:53:01.940Z,0
2019-04-01T07:54:02.195Z,0
2019-04-01T07:55:02.550Z,2
2019-04-01T07:56:03.182Z,0
2019-04-01T07:57:01.907Z,1
2019-04-01T07:58:02.125Z,0
2019-04-01T07:59:02.303Z,0
2019-04-01T08:00:04.795Z,0
2019-04-01T08:01:02.617Z,1
2019-04-01T08:02:01.936Z,1
2019-04-01T08:03:02.140Z,1
2019-04-01T08:04:02.452Z,0
2019-04-01T08:05:02.651Z,1
2019-04-01T08:06:01.873Z,0
2019-04-01T08:07:02.109Z,0
2019-04-01T08:08:02.322Z,0
2019-04-01T08:09:02.486Z,0
2019-04-01T08:10:01.807Z,0
2019-04-01T08:11:02.003Z,1
2019-04-01T08:12:02.279Z,0
2019-04-01T08:13:02.416Z,1
2019-04-01T08:14:01.703Z,0
2019-04-01T08:15:01.951Z,0
2019-04-01T08:16:02.228Z,2
2019-04-01T08:17:02.530Z,1
2019-04-01T08:18:01.719Z,0
2019-04-01T08:19:02.037Z,1
2019-04-01T08:20:02.270Z,0
2019-04-01T08:21:02.448Z,1
2019-04-01T08:22:01.671Z,1
2019-04-01T08:23:01.777Z,1
2019-04-01T08:24:02.084Z,0
2019-04-01T08:25:02.402Z,0
2019-04-01T08:26:01.986Z,2
2019-04-01T08:27:02.197Z,0
2019-04-01T08:28:02.391Z,0
2019-04-01T08:29:02.611Z,0
2019-04-01T08:30:01.879Z,1
2019-04-01T08:31:02.157Z,0
2019-04-01T08:32:02.299Z,0
2019-04-01T08:33:02.541Z,0
2019-04-01T08:34:01.821Z,2
2019-04-01T08:35:01.968Z,0
2019-04-01T08:36:02.231Z,1
2019-04-01T08:37:02.448Z,0
2019-04-01T08:38:01.626Z,3
2019-04-01T08:39:01.880Z,1
2019-04-01T08:40:02.148Z,1
2019-04-01T08:41:02.467Z,1
2019-04-01T08:42:01.674Z,1
2019-04-01T08:43:01.898Z,2
2019-04-01T08:44:03.726Z,0
2019-04-01T08:45:02.401Z,0
2019-04-01T08:46:02.577Z,0
2019-04-01T08:47:01.764Z,2
2019-04-01T08:48:01.971Z,1
2019-04-01T08:49:02.176Z,0
2019-04-01T08:50:02.465Z,0
2019-04-01T08:51:01.680Z,1
2019-04-01T08:52:01.976Z,1
2019-04-01T08:53:02.229Z,0
2019-04-01T08:54:02.341Z,1
2019-04-01T08:55:02.577Z,1
2019-04-01T08:56:01.811Z,1
2019-04-01T08:57:02.038Z,0
2019-04-01T08:58:02.269Z,0
2019-04-01T08:59:02.455Z,0
2019-04-01T09:00:06.540Z,1
2019-04-01T09:01:02.260Z,1
2019-04-01T09:02:18.685Z,1
2019-04-01T09:03:01.682Z,0
2019-04-01T09:04:01.928Z,0
2019-04-01T09:05:02.210Z,0
2019-04-01T09:06:02.923Z,1
2019-04-01T09:07:02.609Z,1
2019-04-01T09:08:01.878Z,2
2019-04-01T09:09:01.949Z,0
2019-04-01T09:10:02.235Z,0
2019-04-01T09:11:02.366Z,0
2019-04-01T09:12:02.562Z,0
2019-04-01T09:13:01.688Z,0
2019-04-01T09:14:01.951Z,1
2019-04-01T09:15:02.282Z,0
2019-04-01T09:16:02.567Z,1
2019-04-01T09:17:01.724Z,1
2019-04-01T09:18:01.929Z,1
2019-04-01T09:19:02.197Z,1
2019-04-01T09:20:02.538Z,0
2019-04-01T09:21:01.714Z,1
2019-04-01T09:22:01.942Z,2
2019-04-01T09:23:02.133Z,2
2019-04-01T09:24:02.322Z,0
2019-04-01T09:25:02.695Z,0
2019-04-01T09:26:01.830Z,0
2019-04-01T09:27:01.978Z,1
2019-04-01T09:28:02.210Z,1
2019-04-01T09:29:02.308Z,0
2019-04-01T09:30:02.613Z,2
2019-04-01T09:31:01.817Z,4
2019-04-01T09:32:02.060Z,5
2019-04-01T09:33:02.375Z,6
2019-04-01T09:34:02.511Z,6
2019-04-01T09:35:01.765Z,5
2019-04-01T09:36:01.939Z,8
2019-04-01T09:37:02.152Z,10
2019-04-01T09:38:02.352Z,12
2019-04-01T09:39:02.537Z,15
2019-04-01T09:40:01.880Z,15
2019-04-01T09:41:02.056Z,12
2019-04-01T09:42:02.276Z,16
2019-04-01T09:43:02.513Z,13
2019-04-01T09:44:01.708Z,15
2019-04-01T09:45:02.006Z,10
2019-04-01T09:46:02.185Z,9
2019-04-01T09:47:02.373Z,15
2019-04-01T09:48:01.728Z,10
2019-04-01T09:49:02.021Z,10
2019-04-01T09:50:02.346Z,9
2019-04-01T09:51:02.553Z,10
2019-04-01T09:52:04.450Z,10
2019-04-01T09:53:01.943Z,9
2019-04-01T09:54:02.130Z,10
2019-04-01T09:55:06.675Z,11
2019-04-01T09:56:01.627Z,9
2019-04-01T09:57:18.442Z,10
2019-04-01T09:58:02.056Z,6
2019-04-01T09:59:02.318Z,9
2019-04-01T10:00:04.087Z,8
2019-04-01T10:01:01.840Z,5
2019-04-01T10:02:01.979Z,10
2019-04-01T10:03:02.290Z,9
2019-04-01T10:04:02.459Z,10
2019-04-01T10:05:02.644Z,9
2019-04-01T10:06:01.867Z,8
2019-04-01T10:07:02.041Z,9
2019-04-01T10:08:02.231Z,7
2019-04-01T10:09:02.514Z,8
2019-04-01T10:10:01.733Z,10
2019-04-01T10:11:01.917Z,15
2019-04-01T10:12:02.056Z,16
2019-04-01T10:13:02.247Z,18
2019-04-01T10:14:02.468Z,12
2019-04-01T10:15:01.712Z,13
2019-04-01T10:16:01.835Z,15
2019-04-01T10:17:02.184Z,14
2019-04-01T10:18:02.279Z,16
2019-04-01T10:19:02.529Z,14
2019-04-01T10:20:01.917Z,13
2019-04-01T10:21:01.978Z,14
2019-04-01T10:22:02.167Z,11
2019-04-01T10:23:02.392Z,14
2019-04-01T10:24:01.688Z,12
2019-04-01T10:25:01.936Z,10
2019-04-01T10:26:02.161Z,13
2019-04-01T10:27:02.398Z,13
2019-04-01T10:28:01.639Z,14
2019-04-01T10:29:01.921Z,10
2019-04-01T10:30:02.191Z,11
2019-04-01T10:31:02.306Z,8
2019-04-01T10:32:02.550Z,12
2019-04-01T10:33:02.963Z,9
2019-04-01T10:34:01.934Z,11
2019-04-01T10:35:02.160Z,10
2019-04-01T10:36:02.329Z,10
2019-04-01T10:37:02.611Z,9
2019-04-01T10:38:01.778Z,13
2019-04-01T10:39:02.018Z,13
2019-04-01T10:40:02.267Z,11
2019-04-01T10:41:02.479Z,10
2019-04-01T10:42:01.732Z,7
2019-04-01T10:43:01.888Z,10
2019-04-01T10:44:05.243Z,9
2019-04-01T10:45:02.398Z,11
2019-04-01T10:46:02.612Z,10
2019-04-01T10:47:01.853Z,8
2019-04-01T10:48:02.112Z,8
2019-04-01T10:49:02.366Z,9
2019-04-01T10:50:02.600Z,8
2019-04-01T10:51:01.815Z,8
2019-04-01T10:52:02.179Z,8
2019-04-01T10:53:02.125Z,10
2019-04-01T10:54:02.477Z,10
2019-04-01T10:55:02.791Z,9
2019-04-01T10:56:01.908Z,11
2019-04-01T10:57:02.087Z,6
2019-04-01T10:58:02.336Z,11
2019-04-01T10:59:02.404Z,9
2019-04-01T11:00:07.573Z,9
2019-04-01T11:01:02.450Z,7
2019-04-01T11:02:02.676Z,7
2019-04-01T11:03:05.630Z,7
2019-04-01T11:04:02.050Z,8
2019-04-01T11:05:02.469Z,6
2019-04-01T11:06:02.733Z,8
2019-04-01T11:07:01.745Z,8
2019-04-01T11:08:01.978Z,9
2019-04-01T11:09:02.203Z,10
2019-04-01T11:10:02.411Z,6
2019-04-01T11:11:02.546Z,7
2019-04-01T11:12:01.716Z,10
2019-04-01T11:13:01.885Z,7
2019-04-01T11:14:02.101Z,5
2019-04-01T11:15:02.338Z,7
2019-04-01T11:16:02.637Z,5
2019-04-01T11:17:04.933Z,6
2019-04-01T11:18:02.356Z,7
2019-04-01T11:19:02.511Z,6
2019-04-01T11:20:01.759Z,6
2019-04-01T11:21:01.999Z,6
2019-04-01T11:22:03.949Z,7
2019-04-01T11:23:05.054Z,7
2019-04-01T11:24:02.679Z,7
2019-04-01T11:25:02.059Z,5
2019-04-01T11:26:02.171Z,6
2019-04-01T11:27:02.330Z,6
2019-04-01T11:28:02.630Z,8
2019-04-01T11:29:01.894Z,6
2019-04-01T11:30:02.154Z,5
2019-04-01T11:31:02.394Z,6
2019-04-01T11:32:02.528Z,4
2019-04-01T11:33:01.815Z,5
2019-04-01T11:34:02.047Z,6
2019-04-01T11:35:02.331Z,6
2019-04-01T11:36:02.592Z,5
2019-04-01T11:37:01.708Z,6
2019-04-01T11:38:02.093Z,6
2019-04-01T11:39:02.154Z,5
2019-04-01T11:40:02.328Z,4
2019-04-01T11:41:02.473Z,5
2019-04-01T11:42:02.137Z,5
2019-04-01T11:43:05.603Z,5
2019-04-01T11:44:02.191Z,6
2019-04-01T11:45:06.315Z,9
2019-04-01T11:46:01.816Z,4
2019-04-01T11:47:01.987Z,7
2019-04-01T11:48:02.206Z,5
2019-04-01T11:49:02.439Z,5
2019-04-01T11:50:02.748Z,4
2019-04-01T11:51:01.854Z,7
2019-04-01T11:52:02.169Z,5
2019-04-01T11:53:02.309Z,4
2019-04-01T11:54:02.479Z,6
2019-04-01T11:55:01.862Z,5
2019-04-01T11:56:02.241Z,3
2019-04-01T11:57:02.289Z,4
2019-04-01T11:58:02.503Z,5
2019-04-01T11:59:01.738Z,3
2019-04-01T12:00:04.308Z,7
2019-04-01T12:01:02.167Z,4
2019-04-01T12:02:02.337Z,5
2019-04-01T12:03:02.570Z,4
2019-04-01T12:04:01.796Z,4
2019-04-01T12:05:02.061Z,4
2019-04-01T12:06:02.297Z,3
2019-04-01T12:07:02.574Z,4
2019-04-01T12:08:01.685Z,4
2019-04-01T12:09:01.920Z,3
2019-04-01T12:10:02.237Z,4
2019-04-01T12:11:02.507Z,5
2019-04-01T12:12:03.300Z,4
2019-04-01T12:13:01.917Z,5
2019-04-01T12:14:05.657Z,3
2019-04-01T12:15:02.403Z,4
2019-04-01T12:16:02.641Z,2
2019-04-01T12:17:01.764Z,6
2019-04-01T12:18:02.038Z,3
2019-04-01T12:19:02.327Z,3
2019-04-01T12:20:02.592Z,3
2019-04-01T12:21:01.758Z,3
2019-04-01T12:22:01.949Z,2
2019-04-01T12:23:02.182Z,5
2019-04-01T12:24:02.512Z,4
2019-04-01T12:25:01.865Z,2
2019-04-01T12:26:16.830Z,2
2019-04-01T12:27:02.119Z,3
2019-04-01T12:28:02.397Z,4
2019-04-01T12:29:02.567Z,2
2019-04-01T12:30:01.773Z,3
2019-04-01T12:31:01.990Z,3
2019-04-01T12:32:02.145Z,4
2019-04-01T12:33:02.417Z,4
2019-04-01T12:34:02.595Z,4
2019-04-01T12:35:02.287Z,4
2019-04-01T12:36:02.228Z,4
2019-04-01T12:37:02.337Z,3
2019-04-01T12:38:02.571Z,4
2019-04-01T12:39:01.757Z,4
2019-04-01T12:40:02.093Z,2
2019-04-01T12:41:02.264Z,5
2019-04-01T12:42:02.457Z,3
2019-04-01T12:43:01.651Z,2
2019-04-01T12:44:01.878Z,3
2019-04-01T12:45:02.274Z,4
2019-04-01T12:46:02.389Z,4
2019-04-01T12:47:01.717Z,4
2019-04-01T12:48:01.910Z,2
2019-04-01T12:49:02.211Z,3
2019-04-01T12:50:02.371Z,2
2019-04-01T12:51:01.633Z,4
2019-04-01T12:52:01.885Z,3
2019-04-01T12:53:02.197Z,3
2019-04-01T12:54:02.430Z,3
2019-04-01T12:55:02.647Z,4
2019-04-01T12:56:01.839Z,3
2019-04-01T12:57:02.001Z,3
2019-04-01T12:58:02.270Z,4
2019-04-01T12:59:02.576Z,3
2019-04-01T13:00:05.388Z,3
2019-04-01T13:01:02.437Z,4
2019-04-01T13:02:02.551Z,5
2019-04-01T13:03:01.778Z,4
2019-04-01T13:04:04.825Z,4
2019-04-01T13:05:02.228Z,4
2019-04-01T13:06:02.413Z,3
2019-04-01T13:07:05.604Z,4
2019-04-01T13:08:01.888Z,3
2019-04-01T13:09:02.036Z,5
2019-04-01T13:10:02.293Z,4
2019-04-01T13:11:02.502Z,3
2019-04-01T13:12:01.765Z,4
2019-04-01T13:13:01.989Z,3
2019-04-01T13:14:02.153Z,4
2019-04-01T13:15:02.346Z,5
2019-04-01T13:16:02.592Z,4
2019-04-01T13:17:01.942Z,3
2019-04-01T13:18:02.199Z,3
2019-04-01T13:19:02.332Z,5
2019-04-01T13:20:02.629Z,5
2019-04-01T13:21:01.810Z,4
2019-04-01T13:22:02.058Z,7
2019-04-01T13:23:02.363Z,9
2019-04-01T13:24:02.495Z,5
2019-04-01T13:25:05.967Z,5
2019-04-01T13:26:03.131Z,4
2019-04-01T13:27:02.321Z,6
2019-04-01T13:28:02.512Z,4
2019-04-01T13:29:01.741Z,4
2019-04-01T13:30:02.081Z,4
2019-04-01T13:31:02.175Z,3
2019-04-01T13:32:02.471Z,5
2019-04-01T13:33:01.610Z,7
2019-04-01T13:34:01.868Z,5
2019-04-01T13:35:02.229Z,3
2019-04-01T13:36:02.463Z,5
2019-04-01T13:37:01.694Z,5
2019-04-01T13:38:01.982Z,9
2019-04-01T13:39:04.566Z,2
2019-04-01T13:40:03.324Z,5
2019-04-01T13:41:02.541Z,4
2019-04-01T13:42:02.362Z,4
2019-04-01T13:43:05.105Z,4
2019-04-01T13:44:02.346Z,5
2019-04-01T13:45:02.792Z,3
2019-04-01T13:46:01.848Z,4
2019-04-01T13:47:02.033Z,3
2019-04-01T13:48:02.179Z,6
2019-04-01T13:49:05.098Z,6
2019-04-01T13:50:04.044Z,4
2019-04-01T13:51:01.997Z,3
2019-04-01T13:52:04.181Z,7
2019-04-01T13:53:02.176Z,3
2019-04-01T13:54:11.361Z,3
2019-04-01T13:55:01.628Z,3
2019-04-01T13:56:01.815Z,2
2019-04-01T13:57:02.160Z,6
2019-04-01T13:58:02.278Z,2
2019-04-01T13:59:02.474Z,3
2019-04-01T14:00:04.449Z,3
2019-04-01T14:01:02.339Z,4
2019-04-01T14:02:02.394Z,4
2019-04-01T14:03:01.620Z,4
2019-04-01T14:04:01.946Z,4
2019-04-01T14:05:06.479Z,3
2019-04-01T14:06:02.350Z,2
2019-04-01T14:07:02.528Z,3
2019-04-01T14:08:01.746Z,2
2019-04-01T14:09:02.020Z,3
2019-04-01T14:10:01.809Z,3
2019-04-01T14:11:05.702Z,3
2019-04-01T14:12:02.187Z,5
2019-04-01T14:13:02.345Z,3
2019-04-01T14:14:02.710Z,5
2019-04-01T14:15:01.895Z,4
2019-04-01T14:16:02.160Z,4
2019-04-01T14:17:02.231Z,4
2019-04-01T14:18:02.437Z,3
2019-04-01T14:19:02.690Z,3
2019-04-01T14:20:01.830Z,2
2019-04-01T14:21:20.505Z,3
2019-04-01T14:22:02.305Z,3
2019-04-01T14:23:02.492Z,3
2019-04-01T14:24:01.654Z,0
2019-04-01T14:25:01.893Z,3
2019-04-01T14:26:02.058Z,4
2019-04-01T14:27:02.299Z,4
2019-04-01T14:28:02.496Z,5
2019-04-01T14:29:01.712Z,3
2019-04-01T14:30:02.052Z,5
2019-04-01T14:31:02.221Z,3
2019-04-01T14:32:02.460Z,3
2019-04-01T14:33:03.753Z,4
2019-04-01T14:34:01.800Z,3
2019-04-01T14:35:02.021Z,4
2019-04-01T14:36:02.282Z,2
2019-04-01T14:37:04.856Z,4
2019-04-01T14:38:02.589Z,2
2019-04-01T14:39:01.780Z,2
2019-04-01T14:40:02.056Z,3
2019-04-01T14:41:02.277Z,3
2019-04-01T14:42:02.490Z,2
2019-04-01T14:43:01.717Z,4
2019-04-01T14:44:01.861Z,3
2019-04-01T14:45:02.152Z,4